sensor_id;sensor_type;location;lat;lon;timestamp;P1;durP1;ratioP1;P2;durP2;ratioP2
47545;SDS011;50104;52.002;4.688;2024-03-23T00:53:21;14.95;;;4.97;;
47545;SDS011;50104;52.002;4.688;2024-03-23T00:58:22;19.33;;;4.15;;
47545;SDS011;50104;52.002;4.688;2024-03-23T01:03:23;16.63;;;5.15;;
47545;SDS011;50104;52.002;4.688;2024-03-23T01:08:24;15.75;;;3.90;;
47545;SDS011;50104;52.002;4.688;2024-03-23T01:13:25;12.05;;;3.65;;
47545;SDS011;50104;52.002;4.688;2024-03-23T01:18:26;9.82;;;3.55;;
47545;SDS011;50104;52.002;4.688;2024-03-23T01:23:27;14.55;;;3.22;;
47545;SDS011;50104;52.002;4.688;2024-03-23T01:28:28;13.25;;;3.25;;
47545;SDS011;50104;52.002;4.688;2024-03-23T01:33:29;13.57;;;3.55;;
47545;SDS011;50104;52.002;4.688;2024-03-23T01:38:30;14.00;;;4.13;;
47545;SDS011;50104;52.002;4.688;2024-03-23T01:43:31;8.85;;;3.20;;
47545;SDS011;50104;52.002;4.688;2024-03-23T01:48:32;9.68;;;3.10;;
47545;SDS011;50104;52.002;4.688;2024-03-23T01:53:33;13.90;;;3.83;;
47545;SDS011;50104;52.002;4.688;2024-03-23T01:58:34;10.82;;;2.92;;
47545;SDS011;50104;52.002;4.688;2024-03-23T02:03:34;9.38;;;3.47;;
47545;SDS011;50104;52.002;4.688;2024-03-23T02:08:35;9.45;;;3.80;;
47545;SDS011;50104;52.002;4.688;2024-03-23T02:13:36;14.05;;;3.13;;
47545;SDS011;50104;52.002;4.688;2024-03-23T02:18:37;12.63;;;3.00;;
47545;SDS011;50104;52.002;4.688;2024-03-23T02:23:38;8.23;;;2.90;;
47545;SDS011;50104;52.002;4.688;2024-03-23T02:28:39;13.90;;;3.53;;
47545;SDS011;50104;52.002;4.688;2024-03-23T02:33:40;11.85;;;2.85;;
47545;SDS011;50104;52.002;4.688;2024-03-23T02:38:41;12.68;;;3.13;;
47545;SDS011;50104;52.002;4.688;2024-03-23T02:43:41;8.25;;;2.10;;
47545;SDS011;50104;52.002;4.688;2024-03-23T02:48:42;11.77;;;2.20;;
47545;SDS011;50104;52.002;4.688;2024-03-23T02:53:43;10.10;;;2.72;;
47545;SDS011;50104;52.002;4.688;2024-03-23T02:58:44;12.52;;;3.60;;
47545;SDS011;50104;52.002;4.688;2024-03-23T03:03:45;6.72;;;2.10;;
47545;SDS011;50104;52.002;4.688;2024-03-23T03:08:46;11.25;;;2.35;;
47545;SDS011;50104;52.002;4.688;2024-03-23T03:13:47;9.45;;;2.60;;
47545;SDS011;50104;52.002;4.688;2024-03-23T03:18:47;5.72;;;2.10;;
47545;SDS011;50104;52.002;4.688;2024-03-23T03:23:48;9.80;;;2.60;;
47545;SDS011;50104;52.002;4.688;2024-03-23T03:28:50;11.98;;;2.25;;
47545;SDS011;50104;52.002;4.688;2024-03-23T03:33:51;9.73;;;1.75;;
47545;SDS011;50104;52.002;4.688;2024-03-23T03:38:52;12.27;;;2.65;;
47545;SDS011;50104;52.002;4.688;2024-03-23T03:43:53;12.43;;;2.47;;
47545;SDS011;50104;52.002;4.688;2024-03-23T03:48:55;10.40;;;2.42;;
47545;SDS011;50104;52.002;4.688;2024-03-23T03:53:56;7.72;;;2.20;;
47545;SDS011;50104;52.002;4.688;2024-03-23T03:58:57;12.40;;;2.70;;
47545;SDS011;50104;52.002;4.688;2024-03-23T04:03:57;13.32;;;2.35;;
47545;SDS011;50104;52.002;4.688;2024-03-23T04:08:58;8.05;;;2.38;;
47545;SDS011;50104;52.002;4.688;2024-03-23T04:13:59;8.55;;;2.20;;
47545;SDS011;50104;52.002;4.688;2024-03-23T04:19:00;3.30;;;1.83;;
47545;SDS011;50104;52.002;4.688;2024-03-23T04:24:01;6.00;;;1.77;;
47545;SDS011;50104;52.002;4.688;2024-03-23T04:29:02;6.50;;;1.87;;
47545;SDS011;50104;52.002;4.688;2024-03-23T04:34:04;4.60;;;2.35;;
47545;SDS011;50104;52.002;4.688;2024-03-23T04:39:05;4.43;;;1.70;;
47545;SDS011;50104;52.002;4.688;2024-03-23T04:44:08;6.20;;;1.52;;
47545;SDS011;50104;52.002;4.688;2024-03-23T04:49:10;6.07;;;1.77;;
47545;SDS011;50104;52.002;4.688;2024-03-23T04:54:11;4.78;;;1.20;;
47545;SDS011;50104;52.002;4.688;2024-03-23T04:59:12;6.05;;;1.80;;
47545;SDS011;50104;52.002;4.688;2024-03-23T05:04:13;8.32;;;2.30;;
47545;SDS011;50104;52.002;4.688;2024-03-23T05:09:14;8.70;;;2.22;;
47545;SDS011;50104;52.002;4.688;2024-03-23T05:14:15;8.02;;;1.58;;
47545;SDS011;50104;52.002;4.688;2024-03-23T05:19:16;7.45;;;2.10;;
47545;SDS011;50104;52.002;4.688;2024-03-23T05:24:17;7.35;;;2.10;;
47545;SDS011;50104;52.002;4.688;2024-03-23T05:29:18;12.27;;;3.13;;
47545;SDS011;50104;52.002;4.688;2024-03-23T05:34:18;10.43;;;2.33;;
47545;SDS011;50104;52.002;4.688;2024-03-23T05:39:19;12.18;;;2.55;;
47545;SDS011;50104;52.002;4.688;2024-03-23T05:44:22;8.88;;;2.55;;
47545;SDS011;50104;52.002;4.688;2024-03-23T05:49:23;13.82;;;4.05;;
47545;SDS011;50104;52.002;4.688;2024-03-23T05:54:25;8.68;;;3.17;;
47545;SDS011;50104;52.002;4.688;2024-03-23T05:59:26;5.38;;;2.42;;
47545;SDS011;50104;52.002;4.688;2024-03-23T06:04:27;7.05;;;2.20;;
47545;SDS011;50104;52.002;4.688;2024-03-23T06:09:28;9.77;;;2.70;;
47545;SDS011;50104;52.002;4.688;2024-03-23T06:14:31;10.85;;;3.10;;
47545;SDS011;50104;52.002;4.688;2024-03-23T06:19:33;17.20;;;3.80;;
47545;SDS011;50104;52.002;4.688;2024-03-23T06:24:33;9.18;;;2.60;;
47545;SDS011;50104;52.002;4.688;2024-03-23T06:29:34;7.68;;;2.42;;
47545;SDS011;50104;52.002;4.688;2024-03-23T06:34:36;8.63;;;2.45;;
47545;SDS011;50104;52.002;4.688;2024-03-23T06:39:37;8.40;;;2.10;;
47545;SDS011;50104;52.002;4.688;2024-03-23T06:44:38;13.93;;;3.00;;
47545;SDS011;50104;52.002;4.688;2024-03-23T06:49:40;10.95;;;2.65;;
47545;SDS011;50104;52.002;4.688;2024-03-23T06:54:41;9.40;;;2.00;;
47545;SDS011;50104;52.002;4.688;2024-03-23T06:59:41;5.38;;;1.77;;
47545;SDS011;50104;52.002;4.688;2024-03-23T07:04:43;5.78;;;2.38;;
47545;SDS011;50104;52.002;4.688;2024-03-23T07:09:44;9.02;;;2.35;;
47545;SDS011;50104;52.002;4.688;2024-03-23T07:14:44;7.50;;;2.45;;
47545;SDS011;50104;52.002;4.688;2024-03-23T07:19:46;7.10;;;2.28;;
47545;SDS011;50104;52.002;4.688;2024-03-23T07:24:47;12.18;;;2.50;;
47545;SDS011;50104;52.002;4.688;2024-03-23T07:29:48;10.68;;;2.95;;
47545;SDS011;50104;52.002;4.688;2024-03-23T07:34:48;9.93;;;2.47;;
47545;SDS011;50104;52.002;4.688;2024-03-23T07:39:49;8.05;;;2.95;;
47545;SDS011;50104;52.002;4.688;2024-03-23T07:44:50;11.50;;;2.53;;
47545;SDS011;50104;52.002;4.688;2024-03-23T07:49:51;8.60;;;2.00;;
47545;SDS011;50104;52.002;4.688;2024-03-23T07:54:52;5.18;;;1.25;;
47545;SDS011;50104;52.002;4.688;2024-03-23T07:59:52;6.55;;;2.25;;
47545;SDS011;50104;52.002;4.688;2024-03-23T08:04:53;8.85;;;1.92;;
47545;SDS011;50104;52.002;4.688;2024-03-23T08:09:54;10.32;;;3.00;;
47545;SDS011;50104;52.002;4.688;2024-03-23T08:14:55;9.35;;;2.28;;
47545;SDS011;50104;52.002;4.688;2024-03-23T08:19:56;11.38;;;2.17;;
47545;SDS011;50104;52.002;4.688;2024-03-23T08:24:57;9.05;;;2.22;;
47545;SDS011;50104;52.002;4.688;2024-03-23T08:29:58;6.47;;;2.17;;
47545;SDS011;50104;52.002;4.688;2024-03-23T08:34:58;10.38;;;2.65;;
47545;SDS011;50104;52.002;4.688;2024-03-23T08:39:59;6.70;;;1.58;;
47545;SDS011;50104;52.002;4.688;2024-03-23T08:45:00;8.95;;;2.45;;
47545;SDS011;50104;52.002;4.688;2024-03-23T08:50:01;11.25;;;2.30;;
47545;SDS011;50104;52.002;4.688;2024-03-23T08:55:02;6.57;;;2.20;;
47545;SDS011;50104;52.002;4.688;2024-03-23T09:00:04;7.25;;;2.03;;
47545;SDS011;50104;52.002;4.688;2024-03-23T09:05:09;10.65;;;1.80;;
47545;SDS011;50104;52.002;4.688;2024-03-23T09:10:09;7.72;;;2.70;;
47545;SDS011;50104;52.002;4.688;2024-03-23T09:15:10;8.90;;;2.50;;
47545;SDS011;50104;52.002;4.688;2024-03-23T09:20:11;13.18;;;2.42;;
47545;SDS011;50104;52.002;4.688;2024-03-23T09:25:12;9.60;;;1.90;;
47545;SDS011;50104;52.002;4.688;2024-03-23T09:30:13;9.95;;;1.80;;
47545;SDS011;50104;52.002;4.688;2024-03-23T09:35:14;11.48;;;2.72;;
47545;SDS011;50104;52.002;4.688;2024-03-23T09:40:15;7.40;;;1.90;;
47545;SDS011;50104;52.002;4.688;2024-03-23T09:45:20;14.98;;;2.33;;
47545;SDS011;50104;52.002;4.688;2024-03-23T09:50:23;8.93;;;1.92;;
47545;SDS011;50104;52.002;4.688;2024-03-23T09:55:24;6.00;;;1.92;;
47545;SDS011;50104;52.002;4.688;2024-03-23T10:00:25;7.95;;;2.10;;
47545;SDS011;50104;52.002;4.688;2024-03-23T10:05:26;9.57;;;2.25;;
47545;SDS011;50104;52.002;4.688;2024-03-23T10:10:27;6.80;;;1.50;;
47545;SDS011;50104;52.002;4.688;2024-03-23T10:15:28;4.50;;;1.23;;
47545;SDS011;50104;52.002;4.688;2024-03-23T10:20:29;6.22;;;1.70;;
47545;SDS011;50104;52.002;4.688;2024-03-23T10:25:30;10.25;;;1.67;;
47545;SDS011;50104;52.002;4.688;2024-03-23T10:30:31;9.98;;;2.55;;
47545;SDS011;50104;52.002;4.688;2024-03-23T10:35:32;10.25;;;2.30;;
47545;SDS011;50104;52.002;4.688;2024-03-23T10:40:36;14.57;;;2.08;;
47545;SDS011;50104;52.002;4.688;2024-03-23T10:45:37;6.32;;;1.90;;
47545;SDS011;50104;52.002;4.688;2024-03-23T10:50:38;9.43;;;1.58;;
47545;SDS011;50104;52.002;4.688;2024-03-23T10:55:39;9.15;;;1.85;;
47545;SDS011;50104;52.002;4.688;2024-03-23T11:00:41;6.47;;;1.95;;
47545;SDS011;50104;52.002;4.688;2024-03-23T11:05:46;6.45;;;1.83;;
47545;SDS011;50104;52.002;4.688;2024-03-23T11:10:47;6.88;;;1.40;;
47545;SDS011;50104;52.002;4.688;2024-03-23T11:15:48;6.78;;;2.03;;
47545;SDS011;50104;52.002;4.688;2024-03-23T11:20:49;9.57;;;1.90;;
47545;SDS011;50104;52.002;4.688;2024-03-23T11:25:49;10.38;;;1.70;;
47545;SDS011;50104;52.002;4.688;2024-03-23T11:30:50;10.13;;;1.90;;
47545;SDS011;50104;52.002;4.688;2024-03-23T11:35:51;9.93;;;2.45;;
47545;SDS011;50104;52.002;4.688;2024-03-23T11:40:52;9.32;;;2.17;;
47545;SDS011;50104;52.002;4.688;2024-03-23T11:45:53;4.93;;;1.10;;
47545;SDS011;50104;52.002;4.688;2024-03-23T11:50:57;3.00;;;1.02;;
47545;SDS011;50104;52.002;4.688;2024-03-23T11:55:58;16.60;;;8.23;;
47545;SDS011;50104;52.002;4.688;2024-03-23T12:01:03;7.63;;;3.00;;
47545;SDS011;50104;52.002;4.688;2024-03-23T12:06:05;10.07;;;1.83;;
47545;SDS011;50104;52.002;4.688;2024-03-23T12:11:11;4.68;;;1.50;;
47545;SDS011;50104;52.002;4.688;2024-03-23T12:16:17;3.88;;;1.70;;
47545;SDS011;50104;52.002;4.688;2024-03-23T12:21:21;8.95;;;2.08;;
47545;SDS011;50104;52.002;4.688;2024-03-23T12:26:22;5.28;;;1.95;;
47545;SDS011;50104;52.002;4.688;2024-03-23T12:31:23;4.97;;;1.65;;
47545;SDS011;50104;52.002;4.688;2024-03-23T12:36:24;7.63;;;1.77;;
47545;SDS011;50104;52.002;4.688;2024-03-23T12:41:25;5.40;;;1.20;;
47545;SDS011;50104;52.002;4.688;2024-03-23T12:46:29;3.42;;;1.95;;
47545;SDS011;50104;52.002;4.688;2024-03-23T12:51:30;8.88;;;2.75;;
47545;SDS011;50104;52.002;4.688;2024-03-23T12:56:31;15.30;;;6.95;;
47545;SDS011;50104;52.002;4.688;2024-03-23T13:01:33;9.00;;;2.35;;
47545;SDS011;50104;52.002;4.688;2024-03-23T13:06:33;8.55;;;3.28;;
47545;SDS011;50104;52.002;4.688;2024-03-23T13:11:34;5.63;;;1.80;;
47545;SDS011;50104;52.002;4.688;2024-03-23T13:16:35;3.85;;;1.20;;
47545;SDS011;50104;52.002;4.688;2024-03-23T13:21:36;5.35;;;2.33;;
47545;SDS011;50104;52.002;4.688;2024-03-23T13:26:37;7.28;;;1.73;;
47545;SDS011;50104;52.002;4.688;2024-03-23T13:31:38;6.65;;;2.15;;
47545;SDS011;50104;52.002;4.688;2024-03-23T13:36:39;8.82;;;1.67;;
47545;SDS011;50104;52.002;4.688;2024-03-23T13:41:46;8.93;;;2.00;;
47545;SDS011;50104;52.002;4.688;2024-03-23T13:46:47;6.10;;;1.27;;
47545;SDS011;50104;52.002;4.688;2024-03-23T13:51:47;7.95;;;1.92;;
47545;SDS011;50104;52.002;4.688;2024-03-23T13:56:49;5.40;;;1.98;;
47545;SDS011;50104;52.002;4.688;2024-03-23T14:01:53;4.38;;;1.08;;
47545;SDS011;50104;52.002;4.688;2024-03-23T14:06:53;3.47;;;0.93;;
47545;SDS011;50104;52.002;4.688;2024-03-23T14:11:55;3.47;;;0.40;;
47545;SDS011;50104;52.002;4.688;2024-03-23T14:16:55;2.25;;;0.45;;
47545;SDS011;50104;52.002;4.688;2024-03-23T14:21:56;1.73;;;0.80;;
47545;SDS011;50104;52.002;4.688;2024-03-23T14:26:57;1.50;;;0.70;;
47545;SDS011;50104;52.002;4.688;2024-03-23T14:31:58;5.43;;;1.13;;
47545;SDS011;50104;52.002;4.688;2024-03-23T14:36:59;5.90;;;1.63;;
47545;SDS011;50104;52.002;4.688;2024-03-23T14:42:00;3.83;;;1.00;;
47545;SDS011;50104;52.002;4.688;2024-03-23T14:47:01;3.30;;;1.30;;
47545;SDS011;50104;52.002;4.688;2024-03-23T14:52:03;4.88;;;1.33;;
47545;SDS011;50104;52.002;4.688;2024-03-23T14:57:04;6.55;;;1.67;;
47545;SDS011;50104;52.002;4.688;2024-03-23T15:02:05;6.55;;;1.60;;
47545;SDS011;50104;52.002;4.688;2024-03-23T15:07:07;7.05;;;1.63;;
47545;SDS011;50104;52.002;4.688;2024-03-23T15:12:08;6.50;;;1.30;;
47545;SDS011;50104;52.002;4.688;2024-03-23T15:17:09;2.35;;;0.90;;
47545;SDS011;50104;52.002;4.688;2024-03-23T15:22:10;4.40;;;1.08;;
47545;SDS011;50104;52.002;4.688;2024-03-23T15:27:11;7.20;;;1.30;;
47545;SDS011;50104;52.002;4.688;2024-03-23T15:32:11;5.18;;;1.58;;
47545;SDS011;50104;52.002;4.688;2024-03-23T15:37:14;2.42;;;1.00;;
47545;SDS011;50104;52.002;4.688;2024-03-23T15:42:15;2.60;;;0.85;;
47545;SDS011;50104;52.002;4.688;2024-03-23T15:47:16;6.90;;;1.75;;
47545;SDS011;50104;52.002;4.688;2024-03-23T15:52:17;4.18;;;0.82;;
47545;SDS011;50104;52.002;4.688;2024-03-23T15:57:18;2.85;;;0.90;;
47545;SDS011;50104;52.002;4.688;2024-03-23T16:02:20;2.50;;;1.00;;
47545;SDS011;50104;52.002;4.688;2024-03-23T16:07:21;4.25;;;0.80;;
47545;SDS011;50104;52.002;4.688;2024-03-23T16:12:22;4.15;;;1.30;;
47545;SDS011;50104;52.002;4.688;2024-03-23T16:17:23;6.95;;;1.15;;
47545;SDS011;50104;52.002;4.688;2024-03-23T16:22:23;6.40;;;1.10;;
47545;SDS011;50104;52.002;4.688;2024-03-23T16:27:24;2.83;;;0.93;;
47545;SDS011;50104;52.002;4.688;2024-03-23T16:32:25;4.95;;;1.55;;
47545;SDS011;50104;52.002;4.688;2024-03-23T16:37:27;3.55;;;1.15;;
47545;SDS011;50104;52.002;4.688;2024-03-23T16:42:28;6.40;;;1.42;;
47545;SDS011;50104;52.002;4.688;2024-03-23T16:47:29;5.63;;;1.20;;
47545;SDS011;50104;52.002;4.688;2024-03-23T16:52:30;2.22;;;0.85;;
47545;SDS011;50104;52.002;4.688;2024-03-23T16:57:30;4.07;;;1.17;;
47545;SDS011;50104;52.002;4.688;2024-03-23T17:02:31;4.05;;;1.00;;
47545;SDS011;50104;52.002;4.688;2024-03-23T17:07:33;4.85;;;1.10;;
47545;SDS011;50104;52.002;4.688;2024-03-23T17:12:34;4.40;;;0.90;;
47545;SDS011;50104;52.002;4.688;2024-03-23T17:17:35;1.90;;;0.80;;
47545;SDS011;50104;52.002;4.688;2024-03-23T17:22:36;2.40;;;0.70;;
47545;SDS011;50104;52.002;4.688;2024-03-23T17:27:37;3.40;;;1.15;;
47545;SDS011;50104;52.002;4.688;2024-03-23T17:32:38;6.82;;;1.20;;
47545;SDS011;50104;52.002;4.688;2024-03-23T17:37:39;7.18;;;1.42;;
47545;SDS011;50104;52.002;4.688;2024-03-23T17:42:42;5.72;;;1.15;;
47545;SDS011;50104;52.002;4.688;2024-03-23T17:47:43;3.65;;;1.13;;
47545;SDS011;50104;52.002;4.688;2024-03-23T17:52:44;6.43;;;1.30;;
47545;SDS011;50104;52.002;4.688;2024-03-23T17:57:46;5.97;;;1.70;;
47545;SDS011;50104;52.002;4.688;2024-03-23T18:02:48;3.53;;;0.93;;
47545;SDS011;50104;52.002;4.688;2024-03-23T18:07:49;4.40;;;2.05;;
47545;SDS011;50104;52.002;4.688;2024-03-23T18:12:50;4.70;;;1.33;;
47545;SDS011;50104;52.002;4.688;2024-03-23T18:17:51;5.55;;;1.33;;
47545;SDS011;50104;52.002;4.688;2024-03-23T18:22:52;1.65;;;0.95;;
47545;SDS011;50104;52.002;4.688;2024-03-23T18:27:53;4.15;;;1.42;;
47545;SDS011;50104;52.002;4.688;2024-03-23T18:32:54;2.67;;;1.20;;
47545;SDS011;50104;52.002;4.688;2024-03-23T18:37:55;4.93;;;0.90;;
47545;SDS011;50104;52.002;4.688;2024-03-23T18:42:55;3.35;;;1.00;;
47545;SDS011;50104;52.002;4.688;2024-03-23T18:47:56;3.38;;;0.80;;
47545;SDS011;50104;52.002;4.688;2024-03-23T18:52:57;3.75;;;1.00;;
47545;SDS011;50104;52.002;4.688;2024-03-23T18:57:58;5.20;;;1.27;;
47545;SDS011;50104;52.002;4.688;2024-03-23T19:02:59;6.05;;;1.88;;
47545;SDS011;50104;52.002;4.688;2024-03-23T19:08:00;4.75;;;1.58;;
47545;SDS011;50104;52.002;4.688;2024-03-23T19:13:01;3.35;;;1.40;;
47545;SDS011;50104;52.002;4.688;2024-03-23T19:18:02;3.47;;;1.63;;
47545;SDS011;50104;52.002;4.688;2024-03-23T19:23:04;4.63;;;1.40;;
47545;SDS011;50104;52.002;4.688;2024-03-23T19:28:05;7.47;;;1.30;;
47545;SDS011;50104;52.002;4.688;2024-03-23T19:33:06;6.93;;;1.40;;
47545;SDS011;50104;52.002;4.688;2024-03-23T19:38:07;4.18;;;1.10;;
47545;SDS011;50104;52.002;4.688;2024-03-23T19:43:08;3.55;;;1.42;;
47545;SDS011;50104;52.002;4.688;2024-03-23T19:48:10;8.48;;;1.80;;
47545;SDS011;50104;52.002;4.688;2024-03-23T19:53:11;4.07;;;1.60;;
47545;SDS011;50104;52.002;4.688;2024-03-23T19:58:12;7.85;;;2.30;;
47545;SDS011;50104;52.002;4.688;2024-03-23T20:03:13;10.18;;;2.90;;
47545;SDS011;50104;52.002;4.688;2024-03-23T20:08:14;4.15;;;2.10;;
47545;SDS011;50104;52.002;4.688;2024-03-23T20:13:14;6.43;;;2.38;;
47545;SDS011;50104;52.002;4.688;2024-03-23T20:18:15;9.15;;;2.45;;
47545;SDS011;50104;52.002;4.688;2024-03-23T20:23:16;4.50;;;2.10;;
47545;SDS011;50104;52.002;4.688;2024-03-23T20:28:17;6.35;;;2.58;;
47545;SDS011;50104;52.002;4.688;2024-03-23T20:33:19;9.52;;;2.65;;
47545;SDS011;50104;52.002;4.688;2024-03-23T20:38:20;3.88;;;2.10;;
47545;SDS011;50104;52.002;4.688;2024-03-23T20:43:22;8.02;;;2.60;;
47545;SDS011;50104;52.002;4.688;2024-03-23T20:48:26;7.18;;;2.40;;
47545;SDS011;50104;52.002;4.688;2024-03-23T20:53:29;4.32;;;2.08;;
47545;SDS011;50104;52.002;4.688;2024-03-23T20:58:34;4.90;;;2.17;;
47545;SDS011;50104;52.002;4.688;2024-03-23T21:03:36;7.68;;;2.15;;
47545;SDS011;50104;52.002;4.688;2024-03-23T21:08:38;5.65;;;2.45;;
47545;SDS011;50104;52.002;4.688;2024-03-23T21:13:39;12.23;;;3.17;;
47545;SDS011;50104;52.002;4.688;2024-03-23T21:18:39;8.85;;;2.58;;
47545;SDS011;50104;52.002;4.688;2024-03-23T21:23:40;10.68;;;2.80;;
47545;SDS011;50104;52.002;4.688;2024-03-23T21:28:41;6.43;;;2.35;;
47545;SDS011;50104;52.002;4.688;2024-03-23T21:33:42;7.07;;;3.15;;
47545;SDS011;50104;52.002;4.688;2024-03-23T21:38:43;6.78;;;2.60;;
47545;SDS011;50104;52.002;4.688;2024-03-23T21:43:43;11.40;;;2.40;;
47545;SDS011;50104;52.002;4.688;2024-03-23T21:48:44;5.85;;;3.85;;
47545;SDS011;50104;52.002;4.688;2024-03-23T21:53:48;5.32;;;2.53;;
47545;SDS011;50104;52.002;4.688;2024-03-23T21:58:50;5.25;;;2.30;;
47545;SDS011;50104;52.002;4.688;2024-03-23T22:03:51;4.50;;;2.08;;
47545;SDS011;50104;52.002;4.688;2024-03-23T22:08:52;5.22;;;2.50;;
47545;SDS011;50104;52.002;4.688;2024-03-23T22:13:53;2.97;;;1.92;;
47545;SDS011;50104;52.002;4.688;2024-03-23T22:18:54;6.38;;;2.28;;
47545;SDS011;50104;52.002;4.688;2024-03-23T22:23:54;6.43;;;1.98;;
47545;SDS011;50104;52.002;4.688;2024-03-23T22:28:55;6.00;;;1.90;;
47545;SDS011;50104;52.002;4.688;2024-03-23T22:33:56;4.53;;;1.83;;
47545;SDS011;50104;52.002;4.688;2024-03-23T22:38:57;4.00;;;2.05;;
47545;SDS011;50104;52.002;4.688;2024-03-23T22:43:58;4.22;;;1.63;;
47545;SDS011;50104;52.002;4.688;2024-03-23T22:48:59;3.65;;;1.95;;
47545;SDS011;50104;52.002;4.688;2024-03-23T22:54:00;4.45;;;2.70;;
47545;SDS011;50104;52.002;4.688;2024-03-23T22:59:01;5.30;;;1.90;;
47545;SDS011;50104;52.002;4.688;2024-03-23T23:04:02;3.53;;;2.42;;
47545;SDS011;50104;52.002;4.688;2024-03-23T23:09:03;6.40;;;2.13;;
47545;SDS011;50104;52.002;4.688;2024-03-23T23:14:04;6.90;;;3.63;;
47545;SDS011;50104;52.002;4.688;2024-03-23T23:19:05;2.97;;;2.15;;
47545;SDS011;50104;52.002;4.688;2024-03-23T23:24:08;6.43;;;2.45;;
47545;SDS011;50104;52.002;4.688;2024-03-23T23:29:09;5.30;;;2.25;;
47545;SDS011;50104;52.002;4.688;2024-03-23T23:34:10;6.63;;;2.63;;
47545;SDS011;50104;52.002;4.688;2024-03-23T23:39:10;10.43;;;3.20;;
47545;SDS011;50104;52.002;4.688;2024-03-23T23:44:11;8.00;;;3.88;;
47545;SDS011;50104;52.002;4.688;2024-03-23T23:49:13;5.97;;;2.83;;
47545;SDS011;50104;52.002;4.688;2024-03-23T23:54:14;6.85;;;3.20;;
47545;SDS011;50104;52.002;4.688;2024-03-23T23:59:15;8.63;;;3.03;;
